Ship John Shoal, NJ current weather conditions

sailwx.info

Wind from 207 at 9 knots gusting 10

Air temperature 8.9° C
Water temperature 7.8° C

Last reported at 2019-Dec-09 18:30 UTC.
Time now 2019-Dec-09 19:25 UTC

Location: N 39°18' W 075°23'.
View on Google Maps.

See reports from other nearby stations

  
Tides and Currents Weather Stations Pressure Air Temp Water Temp Dewpoint Dewpoint Depression Visibility Wind Speed Wind Dir Waves Ship Positions
date/time (UTC)wind fromknots sea level pressurealtimeterstation pressurevisibilityair tempwater tempwave heightnotes
2019-Dec-09 18:42 199 9 gusting 11 9.4 7.8
2019-Dec-09 18:36 197 11 gusting 11 8.9 7.8
2019-Dec-09 18:30 207 9 gusting 10 8.9 7.8
2019-Dec-09 18:24 210 8 gusting 9 9.4 7.8
2019-Dec-09 18:18 214 9 gusting 10 9.4 7.8
2019-Dec-09 18:12 213 7 gusting 8 9.4 7.8
2019-Dec-09 18:06 212 7 gusting 9 9.4 7.8
2019-Dec-09 18:00 205 9 gusting 10 8.9 7.8
2019-Dec-09 17:54 211 9 gusting 10 8.9 7.8
2019-Dec-09 17:48 213 8 gusting 9 8.9 7.8
2019-Dec-09 17:42 224 6 gusting 6 8.9 7.8
2019-Dec-09 17:36 224 5 gusting 6 9.4 7.8
2019-Dec-09 17:30 233 6 gusting 8 9.4 7.8
2019-Dec-09 17:24 245 6 gusting 11 9.4 7.8
2019-Dec-09 17:18 238 8 gusting 10 9.4 7.8
2019-Dec-09 17:12 233 8 gusting 9 9.4 7.8
2019-Dec-09 17:06 223 7 gusting 8 9.4 7.8
2019-Dec-09 17:00 225 6 gusting 8 9.4 7.8
2019-Dec-09 16:54 220 7 gusting 9 8.9 7.8
2019-Dec-09 16:48 223 9 gusting 11 8.9 7.8
2019-Dec-09 16:42 227 9 gusting 10 8.9 7.8
2019-Dec-09 16:36 225 9 gusting 10 8.9 7.8
2019-Dec-09 16:30 223 6 gusting 7 8.3 7.8
2019-Dec-09 16:24 217 5 gusting 6 7.8 7.8
2019-Dec-09 16:18 205 5 gusting 6 7.8 7.8
2019-Dec-09 16:12 197 4 gusting 5 7.2 7.8
2019-Dec-09 16:06 167 3 gusting 4 7.2 7.8
2019-Dec-09 16:00 149 4 gusting 5 7.8 7.8
2019-Dec-09 15:54 154 5 gusting 5 7.8 7.8
2019-Dec-09 15:48 165 5 gusting 6 7.8 7.8
2019-Dec-09 15:42 173 5 gusting 6 7.8 7.8
2019-Dec-09 15:36 187 5 gusting 6 7.8 7.8
2019-Dec-09 15:30 176 5 gusting 5 8.3 7.8
2019-Dec-09 15:24 188 4 gusting 5 8.3 7.8
2019-Dec-09 15:18 172 5 gusting 5 8.3 7.8
2019-Dec-09 15:12 175 4 gusting 4 8.3 7.8
2019-Dec-09 15:06 158 3 gusting 3 7.8 7.8
2019-Dec-09 15:00 210 2 gusting 4 7.8 7.8
2019-Dec-09 14:54 182 2 gusting 3 7.8 7.8
2019-Dec-09 14:48 170 3 gusting 4 7.8 7.8
2019-Dec-09 14:42 167 3 gusting 4 7.8 7.8
2019-Dec-09 14:36 174 4 gusting 4 7.8 7.8
2019-Dec-09 14:30 196 3 gusting 3 7.8 7.8
2019-Dec-09 14:24 212 3 gusting 4 7.8 7.8
2019-Dec-09 14:18 227 5 gusting 6 7.8 7.8
2019-Dec-09 14:12 244 5 gusting 6 7.8 7.8
2019-Dec-09 14:06 257 5 gusting 5 7.8 7.8
2019-Dec-09 14:00 266 5 gusting 6 7.8 7.8
2019-Dec-09 13:54 265 6 gusting 7 7.8 7.8
2019-Dec-09 13:48 264 7 gusting 8 7.8 7.8
2019-Dec-09 13:42 262 7 gusting 9 7.8 7.8
2019-Dec-09 13:36 258 9 gusting 9 7.8 7.8
2019-Dec-09 13:30 260 9 gusting 10 7.8 7.8
2019-Dec-09 13:24 266 9 gusting 10 7.8 7.8
2019-Dec-09 13:18 255 9 gusting 12 8.3 7.8
2019-Dec-09 13:12 234 10 gusting 13 8.3 7.8
2019-Dec-09 13:06 150 11 gusting 13 8.3 7.8
2019-Dec-09 13:00 140 13 gusting 13 8.9 7.8
2019-Dec-09 12:54 136 14 gusting 15 8.9 7.8
2019-Dec-09 12:48 135 15 gusting 16 8.3 7.8
2019-Dec-09 12:42 132 16 gusting 17 8.3 7.8
2019-Dec-09 12:36 131 17 gusting 17 8.3 7.8
2019-Dec-09 12:30 128 16 gusting 17 8.3 7.8
2019-Dec-09 12:24 125 15 gusting 15 8.3 7.8
2019-Dec-09 12:18 124 14 gusting 15 8.3 7.8
2019-Dec-09 12:12 121 15 gusting 16 8.3 7.8
2019-Dec-09 12:06 119 16 gusting 16 8.9 7.8
2019-Dec-09 12:00 119 16 gusting 18 8.9 7.8
2019-Dec-09 11:54 119 17 gusting 19 8.9 7.8
2019-Dec-09 11:48 118 19 gusting 19 8.9 7.8
2019-Dec-09 11:42 118 18 gusting 19 8.9 7.8
2019-Dec-09 11:36 118 17 gusting 17 8.3 7.8
2019-Dec-09 11:30 121 17 gusting 17 8.3 7.8
2019-Dec-09 11:24 124 15 gusting 16 8.3 7.8
2019-Dec-09 11:18 126 15 gusting 16 8.3 7.8
2019-Dec-09 11:12 121 13 gusting 13 8.3 7.8
2019-Dec-09 11:06 119 11 gusting 12 8.3 7.8
2019-Dec-09 11:00 117 9 gusting 10 8.3 7.8
2019-Dec-09 10:54 115 8 gusting 9 7.8 7.8
2019-Dec-09 10:48 112 6 gusting 6 7.8 7.8
2019-Dec-09 10:42 141 2 gusting 4 7.8 7.8
2019-Dec-09 10:36 105 2 gusting 5 7.8 7.8
2019-Dec-09 10:30 312 3 gusting 4 7.2 7.2
2019-Dec-09 10:24 080 0 gusting 4 6.7 7.2
2019-Dec-09 10:18 086 2 gusting 4 6.7 7.2
2019-Dec-09 10:12 086 4 gusting 6 6.7 7.2
2019-Dec-09 10:06 088 6 gusting 7 6.7 7.2
2019-Dec-09 10:00 092 8 gusting 9 6.7 7.8
2019-Dec-09 09:54 089 7 gusting 7 6.7 7.8
2019-Dec-09 09:48 087 4 gusting 5 6.7 7.8
2019-Dec-09 09:42 088 3 gusting 5 6.1 7.8
2019-Dec-09 09:36 088 4 gusting 6 6.1 7.8
2019-Dec-09 09:30 089 6 gusting 7 6.1 7.8
2019-Dec-09 09:24 088 6 gusting 6 6.1 7.8
2019-Dec-09 09:18 090 6 gusting 7 6.1 7.8
2019-Dec-09 09:12 079 4 gusting 5 6.1 7.8
2019-Dec-09 09:06 067 4 gusting 5 6.1 7.8
2019-Dec-09 09:00 061 5 gusting 6 6.1 7.8
2019-Dec-09 08:54 058 5 gusting 5 6.1 7.8
2019-Dec-09 08:48 061 5 gusting 6 6.1 7.8
2019-Dec-09 08:42 064 4 gusting 5 6.1 7.8
2019-Dec-09 08:36 069 4 gusting 4 6.1 7.8
2019-Dec-09 08:30 079 3 gusting 4 5.6 7.8
2019-Dec-09 08:24 082 3 gusting 4 5.6 7.8
2019-Dec-09 08:18 076 4 gusting 7 5.6 7.8
2019-Dec-09 08:12 054 6 gusting 7 5.6 7.8
2019-Dec-09 08:06 043 6 gusting 7 5.6 7.8
2019-Dec-09 08:00 042 6 gusting 7 5.6 7.8
2019-Dec-09 07:54 039 6 gusting 7 5.6 7.8
2019-Dec-09 07:48 029 6 gusting 6 5.6 7.8
2019-Dec-09 07:42 027 5 gusting 6 5.6 7.8
2019-Dec-09 07:36 020 5 gusting 5 5.6 7.8
2019-Dec-09 07:30 015 5 gusting 5 5.6 7.8
2019-Dec-09 07:24 021 5 gusting 5 5.6 7.8
2019-Dec-09 07:18 014 5 gusting 5 5.6 7.8
2019-Dec-09 07:12 006 5 gusting 5 5.6 7.8
2019-Dec-09 07:06 010 5 gusting 5 5.6 7.8
2019-Dec-09 07:00 014 4 gusting 5 5.6 7.8
2019-Dec-09 06:54 025 4 gusting 4 5.6 7.8
2019-Dec-09 06:48 027 3 gusting 4 5.6 7.8
2019-Dec-09 06:42 028 3 gusting 3 5.6 7.8
2019-Dec-09 06:36 034 3 gusting 3 5.6 7.8
2019-Dec-09 06:30 039 3 gusting 3 5.6 7.8
2019-Dec-09 06:24 021 3 gusting 3 5.6 7.8
2019-Dec-09 06:18 014 2 gusting 3 5.6 7.8
2019-Dec-09 06:12 024 2 gusting 2 5.6 7.2
2019-Dec-09 06:06 003 2 gusting 2 5.6 7.2
2019-Dec-09 06:00 343 1 gusting 2 5.6 7.2
2019-Dec-09 05:54 351 2 gusting 2 5.6 7.2
2019-Dec-09 05:48 316 1 gusting 1 5.6 7.2
2019-Dec-09 05:42 307 1 gusting 2 5.6 7.2
2019-Dec-09 05:36 305 1 gusting 1 5.6 7.2
2019-Dec-09 05:30 281 0 gusting 1 5.6 7.2
2019-Dec-09 05:24 281 0 gusting 1 5.6 7.2
2019-Dec-09 05:18 281 1 gusting 1 6.1 7.2
2019-Dec-09 05:12 291 1 gusting 1 6.1 7.2
2019-Dec-09 05:06 256 1 gusting 1 6.1 7.2
2019-Dec-09 05:00 126 6.1 7.2
2019-Dec-09 04:54 126 6.1 7.2
2019-Dec-09 04:48 122 0 gusting 2 6.1 7.2
2019-Dec-09 04:42 112 2 gusting 3 6.1 7.2
2019-Dec-09 04:36 099 2 gusting 2 6.1 7.2
2019-Dec-09 04:30 088 1 gusting 1 6.1 7.2
2019-Dec-09 04:24 087 1 gusting 1 6.1 7.2
2019-Dec-09 04:18 088 1 gusting 1 6.1 7.2
2019-Dec-09 04:12 088 1 gusting 2 6.1 7.2
2019-Dec-09 04:06 097 2 gusting 2 6.1 7.2
2019-Dec-09 04:00 090 1 gusting 2 6.1 7.2
2019-Dec-09 03:54 088 1 gusting 1 6.1 7.2
2019-Dec-09 03:48 086 0 gusting 1 6.1 7.2
2019-Dec-09 03:42 086 0 gusting 1 6.1 7.2
2019-Dec-09 03:36 109 1 gusting 1 6.1 7.2
2019-Dec-09 03:30 110 1 gusting 3 6.1 7.2
2019-Dec-09 03:24 104 2 gusting 3 5.6 7.2
2019-Dec-09 03:18 122 3 gusting 4 5.6 7.2
2019-Dec-09 03:12 115 3 gusting 3 5.6 7.2
2019-Dec-09 03:06 102 3 gusting 4 5.6 7.2
2019-Dec-09 03:00 111 2 gusting 4 5.6 7.2
2019-Dec-09 02:54 115 4 gusting 5 5.6 7.2
2019-Dec-09 02:48 126 5 gusting 6 5.6 7.2
2019-Dec-09 02:42 121 5 gusting 6 5.6 7.2
2019-Dec-09 02:36 113 6 gusting 6 5.6 7.2
2019-Dec-09 02:30 108 5 gusting 5 5.6 7.2
2019-Dec-09 02:24 106 3 gusting 4 5.6 7.2
2019-Dec-09 02:18 107 4 gusting 4 5.6 7.2
2019-Dec-09 02:12 091 2 gusting 4 5.6 7.2
2019-Dec-09 02:06 093 3 gusting 3 5.6 7.2
2019-Dec-09 02:00 076 2 gusting 2 5.6 7.2
2019-Dec-09 01:54 044 1 gusting 2 5.6 7.2
2019-Dec-09 01:48 045 1 gusting 2 5.6 7.2
2019-Dec-09 01:36 081 1 gusting 4 5.6 7.2
2019-Dec-09 01:30 088 2 gusting 5 5.6 7.2
2019-Dec-09 01:24 106 5 gusting 7 5.6 7.2
2019-Dec-09 01:18 105 5 gusting 6 5.6 7.2
2019-Dec-09 01:12 109 5 gusting 6 5.6 7.2
2019-Dec-09 01:06 120 7 gusting 9 5.6 7.2
2019-Dec-09 01:00 118 7 gusting 9 5.6 7.2
2019-Dec-09 00:54 114 7 gusting 9 5.6 7.2
2019-Dec-09 00:48 115 8 gusting 9 5.6 7.2
2019-Dec-09 00:42 114 9 gusting 9 5.6 7.2
2019-Dec-09 00:36 109 8 gusting 9 5.6 7.8
2019-Dec-09 00:30 129 7 gusting 8 6.1 7.8
2019-Dec-09 00:24 134 8 gusting 11 6.1 7.8
2019-Dec-09 00:18 115 9 gusting 10 6.1 7.8
2019-Dec-09 00:12 121 7 gusting 9 6.1 7.8
2019-Dec-09 00:06 144 8 gusting 9 6.7 7.8
2019-Dec-09 00:00 151 9 gusting 10 6.7 7.8
2019-Dec-08 23:54 154 10 gusting 11 6.7 7.8
2019-Dec-08 23:42 155 12 gusting 13 6.7 7.8
2019-Dec-08 23:36 147 12 gusting 13 6.7 7.8
2019-Dec-08 23:30 150 12 gusting 13 6.7 7.8
2019-Dec-08 23:24 149 12 gusting 13 6.7 7.2
2019-Dec-08 23:18 144 12 gusting 13 6.7 7.8
2019-Dec-08 23:12 136 13 gusting 14 6.7 7.2
2019-Dec-08 23:06 140 13 gusting 13 6.7 7.2
2019-Dec-08 23:00 140 13 gusting 13 6.7 7.2
2019-Dec-08 22:54 136 12 gusting 13 6.7 7.2
2019-Dec-08 22:48 135 11 gusting 13 6.7 7.2
2019-Dec-08 22:42 134 13 gusting 14 6.7 7.2
2019-Dec-08 22:36 132 14 gusting 15 6.7 7.2
2019-Dec-08 22:30 129 13 gusting 14 6.7 7.2
2019-Dec-08 22:24 131 13 gusting 13 6.7 7.2
2019-Dec-08 22:18 131 13 gusting 13 6.7 7.2
2019-Dec-08 22:12 130 13 gusting 13 6.7 7.2
2019-Dec-08 22:06 127 13 gusting 13 6.7 7.8
2019-Dec-08 22:00 122 13 gusting 13 6.1 7.8
2019-Dec-08 21:54 119 13 gusting 13 6.1 7.8
2019-Dec-08 21:48 124 13 gusting 13 6.1 7.8
2019-Dec-08 21:42 126 12 gusting 13 6.1 7.8
2019-Dec-08 21:36 125 12 gusting 13 6.1 7.8
2019-Dec-08 21:30 122 12 gusting 13 6.1 7.8
2019-Dec-08 21:24 120 12 gusting 13 6.1 7.8
2019-Dec-08 21:18 121 13 gusting 14 6.1 7.8
2019-Dec-08 21:12 125 13 gusting 15 6.1 7.8
2019-Dec-08 21:06 129 14 gusting 15 6.1 7.8
2019-Dec-08 21:00 130 14 gusting 16 6.1 7.8
2019-Dec-08 20:54 131 13 gusting 14 6.1 7.8
2019-Dec-08 20:48 128 13 gusting 14 6.1 7.8
2019-Dec-08 20:42 127 13 gusting 14 6.1 7.8
2019-Dec-08 20:36 123 13 gusting 14 6.1 7.8
2019-Dec-08 20:30 127 13 gusting 14 6.1 7.8
2019-Dec-08 20:24 127 13 gusting 14 6.1 7.8
2019-Dec-08 20:18 125 13 gusting 14 6.1 7.8
2019-Dec-08 20:12 126 12 gusting 14 6.1 7.8
2019-Dec-08 20:06 130 13 gusting 14 6.1 7.8
2019-Dec-08 20:00 130 14 gusting 15 6.1 7.8
2019-Dec-08 19:54 129 13 gusting 15 6.1 7.8
2019-Dec-08 19:48 130 13 gusting 14 6.1 7.8
2019-Dec-08 19:42 131 13 gusting 15 6.1 7.8
2019-Dec-08 19:36 132 13 gusting 14 5.6 7.8
2019-Dec-08 19:30 137 14 gusting 15 5.6 7.8
2019-Dec-08 19:24 140 13 gusting 14 5.6 7.8
2019-Dec-08 19:18 136 13 gusting 14 5.6 7.8
2019-Dec-08 19:12 141 13 gusting 14 5.6 7.8
2019-Dec-08 19:06 139 13 gusting 15 5.6 7.8
2019-Dec-08 19:00 137 13 gusting 13 5.6 7.8
2019-Dec-08 18:54 150 11 gusting 13 6.1 7.8
2019-Dec-08 18:48 148 10 gusting 12 6.1 7.8
2019-Dec-08 18:42 140 7 gusting 10 5.6 7.8
2019-Dec-08 18:36 138 9 gusting 10 5.0 7.8
2019-Dec-08 18:30 136 7 gusting 10 5.0 7.8
2019-Dec-08 18:24 135 8 gusting 10 5.0 7.8
2019-Dec-08 18:18 142 8 gusting 10 5.0 7.8
2019-Dec-08 18:12 141 9 gusting 11 5.0 7.8
2019-Dec-08 18:06 145 9 gusting 11 5.0 7.2
2019-Dec-08 18:00 147 9 gusting 11 5.0 7.2
2019-Dec-08 17:54 148 9 gusting 12 5.0 7.2
2019-Dec-08 17:48 144 10 gusting 11 5.0 7.2
2019-Dec-08 17:42 142 10 gusting 13 4.4 7.2
2019-Dec-08 17:36 137 11 gusting 13 4.4 7.2
2019-Dec-08 17:30 139 12 gusting 13 4.4 7.2
2019-Dec-08 17:24 129 10 gusting 13 4.4 7.2
2019-Dec-08 17:18 132 12 gusting 13 4.4 7.2
2019-Dec-08 17:12 135 11 gusting 13 4.4 7.2
2019-Dec-08 17:06 135 12 gusting 13 4.4 7.2
2019-Dec-08 17:00 131 13 gusting 13 4.4 7.2
2019-Dec-08 16:54 125 11 gusting 13 4.4 7.2
2019-Dec-08 16:48 130 11 gusting 13 4.4 7.2
2019-Dec-08 16:42 126 12 gusting 14 4.4 7.2
2019-Dec-08 16:36 122 12 gusting 13 4.4 7.2
2019-Dec-08 16:30 123 12 gusting 15 3.9 7.2
2019-Dec-08 16:24 131 13 gusting 14 3.9 7.2
2019-Dec-08 16:18 123 13 gusting 14 3.9 7.2
2019-Dec-08 16:12 129 13 gusting 13 3.9 7.2
2019-Dec-08 16:06 125 12 gusting 13 3.9 7.2
2019-Dec-08 16:00 120 12 gusting 13 3.9 7.2
2019-Dec-08 15:54 115 11 gusting 13 3.9 7.2
2019-Dec-08 15:48 114 12 gusting 13 3.3 7.2
2019-Dec-08 15:42 114 12 gusting 13 3.3 7.2
2019-Dec-08 15:36 114 11 gusting 13 3.3 7.2
2019-Dec-08 15:30 116 12 gusting 13 3.3 7.2
2019-Dec-08 15:24 117 11 gusting 13 3.3 7.2
2019-Dec-08 15:18 114 11 gusting 12 3.3 7.2
2019-Dec-08 15:12 113 10 gusting 12 3.3 7.2
2019-Dec-08 15:06 111 11 gusting 12 3.3 7.2
2019-Dec-08 15:00 110 11 gusting 12 2.8 7.2
2019-Dec-08 14:54 101 10 gusting 11 2.8 7.2
2019-Dec-08 14:48 105 10 gusting 12 2.8 7.2
2019-Dec-08 14:42 101 10 gusting 12 2.8 7.2
2019-Dec-08 14:36 099 9 gusting 12 2.8 7.2
2019-Dec-08 14:30 098 10 gusting 12 2.2 7.2
2019-Dec-08 14:24 102 10 gusting 12 2.2 7.2
2019-Dec-08 14:18 103 11 gusting 13 1.7 7.2
2019-Dec-08 14:12 101 10 gusting 12 1.7 7.2
2019-Dec-08 14:06 100 9 gusting 10 1.7 7.2
2019-Dec-08 14:00 098 8 gusting 10 1.1 7.2
2019-Dec-08 13:54 098 8 gusting 11 0.6 7.2
2019-Dec-08 13:48 093 6 gusting 9 0.6 7.2
2019-Dec-08 13:42 090 6 gusting 9 0.6 7.2
2019-Dec-08 13:36 094 7 gusting 10 -0.0 7.2
2019-Dec-08 13:30 091 7 gusting 11 -0.0 7.2
2019-Dec-08 13:24 091 7 gusting 9 -0.0 7.2
2019-Dec-08 13:18 089 7 gusting 10 -0.6 7.2
2019-Dec-08 13:12 086 6 gusting 10 -0.6 7.2
2019-Dec-08 13:06 086 6 gusting 9 -0.0 7.2
2019-Dec-08 13:00 083 6 gusting 9 -0.0 7.2
2019-Dec-08 12:54 081 6 gusting 8 -0.0 7.2
2019-Dec-08 12:48 076 7 gusting 8 -0.6 7.2
2019-Dec-08 12:42 072 7 gusting 8 -0.6 7.2
2019-Dec-08 12:36 074 7 gusting 8 -0.6 7.2
2019-Dec-08 12:30 074 6 gusting 8 -0.6 7.2
2019-Dec-08 12:24 075 6 gusting 8 -0.6 7.2
2019-Dec-08 12:18 072 6 gusting 7 -0.6 7.2
2019-Dec-08 12:12 073 6 gusting 7 -0.6 7.2
2019-Dec-08 12:06 076 6 gusting 8 -0.6 7.2
2019-Dec-08 12:00 077 6 gusting 7 -0.6 7.2
2019-Dec-08 11:54 076 6 gusting 7 -1.1 7.2
2019-Dec-08 11:48 079 6 gusting 7 -0.6 7.2
2019-Dec-08 11:42 077 6 gusting 7 -0.6 7.2
2019-Dec-08 11:36 077 5 gusting 7 -0.6 7.2
2019-Dec-08 11:30 076 6 gusting 7 -0.6 7.2
2019-Dec-08 11:24 071 6 gusting 7 -0.6 7.2
2019-Dec-08 11:18 074 6 gusting 8 -0.6 7.2
2019-Dec-08 11:12 075 6 gusting 7 -0.6 7.2
2019-Dec-08 11:06 077 6 gusting 8 -0.6 7.2
2019-Dec-08 11:00 070 7 gusting 8 -0.6 7.2
2019-Dec-08 10:54 070 7 gusting 8 -0.6 7.2
2019-Dec-08 10:48 068 7 gusting 8 -0.6 7.2
2019-Dec-08 10:42 069 7 gusting 9 -0.6 7.2
2019-Dec-08 10:36 069 7 gusting 9 -0.6 7.2
2019-Dec-08 10:30 067 7 gusting 10 -0.6 7.2
2019-Dec-08 10:24 066 8 gusting 10 -0.6 7.2
2019-Dec-08 10:18 067 7 gusting 9 -0.6 7.2
2019-Dec-08 10:12 072 7 gusting 9 -0.6 7.2
2019-Dec-08 10:06 070 8 gusting 10 -0.6 7.2
2019-Dec-08 10:00 073 8 gusting 11 -0.6 7.2
2019-Dec-08 09:54 069 8 gusting 10 -0.0 7.2
2019-Dec-08 09:48 075 7 gusting 9 -0.6 7.2
2019-Dec-08 09:42 071 7 gusting 9 -0.6 7.2
2019-Dec-08 09:36 072 7 gusting 9 -0.0 7.2
2019-Dec-08 09:30 074 6 gusting 8 -0.0 7.2
2019-Dec-08 09:24 077 6 gusting 9 -0.0 7.2
2019-Dec-08 09:18 078 6 gusting 8 -0.0 7.2
2019-Dec-08 09:12 083 5 gusting 7 -0.0 7.2
2019-Dec-08 09:06 082 6 gusting 7 0.6 7.2
2019-Dec-08 09:00 081 6 gusting 8 0.6 7.2
2019-Dec-08 08:54 082 6 gusting 7 -0.0 7.2
2019-Dec-08 08:48 083 6 gusting 8 -0.0 7.2
2019-Dec-08 08:42 085 6 gusting 7 -0.0 7.8
2019-Dec-08 08:36 080 5 gusting 7 0.6 7.8
2019-Dec-08 08:30 079 6 gusting 8 -0.0 7.8
2019-Dec-08 08:24 077 6 gusting 9 -0.0 7.8
2019-Dec-08 08:18 075 7 gusting 9 -0.0 7.2
2019-Dec-08 08:12 073 7 gusting 9 0.6 7.2
2019-Dec-08 08:06 074 7 gusting 9 0.6 7.2
2019-Dec-08 08:00 074 7 gusting 9 0.6 7.2
2019-Dec-08 07:54 072 7 gusting 10 0.6 7.2
2019-Dec-08 07:48 071 7 gusting 9 0.6 7.2
2019-Dec-08 07:42 070 7 gusting 9 0.6 7.2
2019-Dec-08 07:36 073 7 gusting 9 0.6 7.8
2019-Dec-08 07:30 073 8 gusting 10 0.6 7.8
2019-Dec-08 07:24 074 7 gusting 10 0.6 7.8
2019-Dec-08 07:18 076 7 gusting 10 0.6 7.8
2019-Dec-08 07:12 074 8 gusting 11 0.6 7.8
2019-Dec-08 07:06 077 8 gusting 11 1.1 7.8
2019-Dec-08 07:00 081 6 gusting 8 1.1 7.8
2019-Dec-08 06:54 079 6 gusting 9 1.1 7.8
2019-Dec-08 06:48 076 7 gusting 10 1.1 7.8
2019-Dec-08 06:42 077 7 gusting 9 1.1 7.8
2019-Dec-08 06:36 074 7 gusting 9 1.1 7.8
2019-Dec-08 06:30 074 7 gusting 8 1.1 7.8
2019-Dec-08 06:24 077 6 gusting 8 1.1 7.8
2019-Dec-08 06:18 074 7 gusting 9 1.1 7.8
2019-Dec-08 06:12 075 7 gusting 9 1.1 7.8
2019-Dec-08 06:06 075 7 gusting 9 1.1 7.8
2019-Dec-08 06:00 073 8 gusting 9 1.1 7.8
2019-Dec-08 05:54 074 7 gusting 9 1.1 7.8
2019-Dec-08 05:48 073 7 gusting 9 1.1 7.8
2019-Dec-08 05:42 071 8 gusting 10 1.1 7.8
2019-Dec-08 05:36 075 7 gusting 9 1.1 7.8
2019-Dec-08 05:30 074 7 gusting 8 1.1 7.8
2019-Dec-08 05:24 073 8 gusting 10 1.1 7.8
2019-Dec-08 05:18 074 7 gusting 9 1.1 7.8
2019-Dec-08 05:12 072 8 gusting 10 1.1 7.8
2019-Dec-08 05:06 068 9 gusting 10 1.1 7.8
2019-Dec-08 05:00 068 9 gusting 11 1.1 7.8
2019-Dec-08 04:54 065 10 gusting 12 1.7 7.2
2019-Dec-08 04:48 062 11 gusting 13 1.7 7.2
2019-Dec-08 04:42 061 11 gusting 13 1.7 7.2
2019-Dec-08 04:36 057 11 gusting 13 1.7 7.2
2019-Dec-08 04:30 053 13 gusting 14 1.7 7.2
2019-Dec-08 04:24 054 12 gusting 13 2.2 7.2
2019-Dec-08 04:18 051 11 gusting 13 2.2 7.2
2019-Dec-08 04:12 049 10 gusting 13 2.2 7.2
2019-Dec-08 04:06 041 11 gusting 13 2.2 7.2
2019-Dec-08 04:00 038 10 gusting 13 2.8 7.8
2019-Dec-08 03:54 037 9 gusting 12 2.8 7.8
2019-Dec-08 03:48 033 7 gusting 9 2.8 7.8
2019-Dec-08 03:42 029 6 gusting 8 2.8 7.8
2019-Dec-08 03:36 030 6 gusting 7 2.8 7.8
2019-Dec-08 03:30 025 6 gusting 8 2.8 7.8
2019-Dec-08 03:24 020 6 gusting 6 2.8 7.8
2019-Dec-08 03:18 020 6 gusting 6 2.8 7.8
2019-Dec-08 03:12 021 6 gusting 6 2.8 7.8
2019-Dec-08 03:06 018 6 gusting 6 3.3 7.8
2019-Dec-08 03:00 013 5 gusting 6 3.3 7.8
2019-Dec-08 02:54 022 6 gusting 6 3.3 7.8
2019-Dec-08 02:48 016 6 gusting 6 3.3 7.8
2019-Dec-08 02:42 013 6 gusting 6 3.3 7.8
2019-Dec-08 02:36 010 5 gusting 6 3.3 7.8
2019-Dec-08 02:30 011 5 gusting 6 3.3 7.8
2019-Dec-08 02:24 005 5 gusting 6 3.3 7.8
2019-Dec-08 02:18 012 5 gusting 6 3.3 7.8
2019-Dec-08 02:12 003 6 gusting 6 3.3 7.8
2019-Dec-08 02:06 006 6 gusting 6 3.3 7.8
2019-Dec-08 02:00 008 6 gusting 6 3.3 7.8
2019-Dec-08 01:30 006 6 gusting 6 3.9 7.8
2019-Dec-08 01:24 001 6 gusting 7 3.9 7.8
2019-Dec-08 01:18 003 6 gusting 6 3.9 7.8
2019-Dec-08 01:12 3.9 7.8
2019-Dec-08 01:06 355 6 gusting 7 3.9 7.8
2019-Dec-08 01:00 358 6 gusting 8 3.9 7.8
2019-Dec-08 00:54 356 7 gusting 8 3.9 7.8
2019-Dec-08 00:48 358 7 gusting 9 3.9 7.8
2019-Dec-08 00:42 353 8 gusting 10 3.9 7.8
2019-Dec-08 00:36 3.9 7.8
2019-Dec-08 00:30 002 8 gusting 9 3.9 7.8
2019-Dec-08 00:24 348 7 gusting 8 3.9 7.8
2019-Dec-08 00:18 002 8 gusting 9 3.9 7.8
2019-Dec-08 00:12 360 7 gusting 9 3.9 7.8
2019-Dec-08 00:06 360 8 gusting 10 3.9 7.8
2019-Dec-08 00:00 360 7 gusting 9 3.9 7.8
2019-Dec-07 23:54 356 6 gusting 9 3.9 7.8
2019-Dec-07 23:48 347 9 gusting 10 3.9 7.8
2019-Dec-07 23:42 353 8 gusting 11 3.9 7.8
2019-Dec-07 23:36 350 9 gusting 10 4.4 7.8
2019-Dec-07 23:30 350 8 gusting 11 4.4 7.8
2019-Dec-07 23:24 352 9 gusting 10 4.4 7.8
2019-Dec-07 23:18 342 7 gusting 9 4.4 7.8
2019-Dec-07 23:12 306 6 gusting 8 4.4 7.8
2019-Dec-07 23:06 299 7 gusting 12 4.4 7.8
2019-Dec-07 23:00 330 7 gusting 10 4.4 7.8
2019-Dec-07 22:54 316 6 gusting 8 4.4 7.8
2019-Dec-07 22:48 328 7 gusting 9 4.4 7.8
2019-Dec-07 22:42 338 7 gusting 9 4.4 7.8
2019-Dec-07 22:36 336 7 gusting 9 4.4 7.8
2019-Dec-07 22:30 347 7 gusting 8 4.4 7.8
2019-Dec-07 22:24 340 6 gusting 6 4.4 7.8
2019-Dec-07 22:18 350 6 gusting 7 4.4 7.8
2019-Dec-07 22:12 345 6 gusting 7 4.4 7.8
2019-Dec-07 22:06 335 7 gusting 8 4.4 7.8
2019-Dec-07 22:00 352 7 gusting 9 4.4 7.8
2019-Dec-07 21:54 345 7 gusting 8 4.4 7.8
2019-Dec-07 21:48 354 7 gusting 9 4.4 7.8
2019-Dec-07 21:42 340 8 gusting 10 4.4 7.8
2019-Dec-07 21:36 331 7 gusting 9 4.4 7.8
2019-Dec-07 21:30 323 6 gusting 8 4.4 7.8
2019-Dec-07 21:24 331 5 gusting 6 4.4 7.8
2019-Dec-07 21:18 331 6 gusting 7 4.4 7.8
2019-Dec-07 21:12 308 6 gusting 8 4.4 7.8
2019-Dec-07 21:06 317 6 gusting 9 3.9 7.8
2019-Dec-07 21:00 318 8 gusting 10 3.9 7.8
2019-Dec-07 20:54 323 6 gusting 11 3.9 7.8
2019-Dec-07 20:48 315 10 gusting 11 3.9 7.8
2019-Dec-07 20:42 327 7 gusting 10 3.9 7.8
2019-Dec-07 20:36 309 10 gusting 11 3.9 7.8
2019-Dec-07 20:30 308 10 gusting 12 3.9 7.8
2019-Dec-07 20:24 321 11 gusting 13 3.9 7.8
2019-Dec-07 20:18 303 10 gusting 12 3.9 7.8
2019-Dec-07 20:12 305 10 gusting 12 3.9 7.8
2019-Dec-07 20:06 319 11 gusting 13 3.9 7.8
2019-Dec-07 20:00 325 11 gusting 12 3.9 7.8
2019-Dec-07 19:54 321 11 gusting 13 3.9 7.8
2019-Dec-07 19:48 321 10 gusting 13 3.9 7.8
2019-Dec-07 19:42 316 11 gusting 13 3.9 7.8
2019-Dec-07 19:36 323 11 gusting 14 3.9 7.8
2019-Dec-07 19:30 323 11 gusting 13 3.9 7.8
2019-Dec-07 19:24 321 11 gusting 12 3.9 7.8
2019-Dec-07 19:18 321 11 gusting 12 3.9 7.8
2019-Dec-07 19:12 327 11 gusting 13 3.9 7.8
2019-Dec-07 19:06 311 12 gusting 13 3.9 7.8
2019-Dec-07 19:00 313 11 gusting 13 3.9 7.8